Time;durP1;ratioP1;P1;durP2;ratioP2;P2;SDS_P1;SDS_P2;PMS_P1;PMS_P2;Temp;Humidity;BMP_temperature;BMP_pressure;BME280_temperature;BME280_humidity;BME280_pressure;Samples;Min_cycle;Max_cycle;Signal;HPM_P1;HPM_P2
2022/03/21 00:00:52;;;;;;;4.13;4.03;;;17.70;63.70;;;;;;5029047;28;43900;-78
2022/03/21 00:03:21;;;;;;;4.00;3.90;;;17.70;64.70;;;;;;5010942;28;45610;-78
2022/03/21 00:05:49;;;;;;;3.73;3.63;;;17.70;64.00;;;;;;5028560;28;44019;-77
2022/03/21 00:08:18;;;;;;;3.97;3.87;;;17.80;63.60;;;;;;5028659;28;43881;-77
2022/03/21 00:10:46;;;;;;;4.07;3.97;;;18.00;63.30;;;;;;5029044;28;43384;-77
2022/03/21 00:13:15;;;;;;;3.90;3.80;;;18.00;63.00;;;;;;5028535;28;44012;-77
2022/03/21 00:15:43;;;;;;;3.90;3.80;;;17.90;63.00;;;;;;5027740;28;43982;-77
2022/03/21 00:18:13;;;;;;;4.13;4.03;;;17.80;63.10;;;;;;5028614;28;44136;-77
2022/03/21 00:20:42;;;;;;;3.73;3.63;;;17.80;63.40;;;;;;5011219;28;44059;-77
2022/03/21 00:23:10;;;;;;;4.30;4.20;;;17.70;63.50;;;;;;5009341;28;44123;-77
2022/03/21 00:25:38;;;;;;;3.50;3.40;;;17.70;63.70;;;;;;5028278;28;44269;-78
2022/03/21 00:28:06;;;;;;;4.40;4.30;;;17.60;63.80;;;;;;5028782;28;44081;-77
2022/03/21 00:30:35;;;;;;;3.83;3.73;;;17.60;63.90;;;;;;5047787;28;43945;-77
2022/03/21 00:33:03;;;;;;;3.70;3.60;;;17.60;64.00;;;;;;5028478;28;44052;-77
2022/03/21 00:35:32;;;;;;;3.93;3.83;;;17.60;64.10;;;;;;5023654;28;44518;-77
2022/03/21 00:38:00;;;;;;;4.07;3.97;;;17.50;64.10;;;;;;5022080;28;43369;-77
2022/03/21 00:40:29;;;;;;;4.10;4.00;;;17.50;64.30;;;;;;5027214;28;44120;-77
2022/03/21 00:42:57;;;;;;;4.10;4.00;;;17.60;64.10;;;;;;5022009;28;43991;-78
2022/03/21 00:45:26;;;;;;;3.50;3.40;;;17.80;63.80;;;;;;5047173;28;44021;-77
2022/03/21 00:47:54;;;;;;;3.60;3.50;;;18.00;63.30;;;;;;5040809;28;44368;-78
2022/03/21 00:50:23;;;;;;;3.80;3.70;;;18.20;62.90;;;;;;5028663;28;43948;-77
2022/03/21 00:52:53;;;;;;;3.90;3.80;;;18.30;62.40;;;;;;5027695;28;43572;-78
2022/03/21 00:55:22;;;;;;;4.07;3.97;;;18.30;62.20;;;;;;5028125;28;43896;-77
2022/03/21 00:57:50;;;;;;;3.70;3.60;;;18.20;62.20;;;;;;5027857;28;43958;-77
2022/03/21 01:00:19;;;;;;;4.20;4.10;;;18.10;62.40;;;;;;5010568;28;43962;-77
2022/03/21 01:02:47;;;;;;;3.83;3.73;;;18.00;62.60;;;;;;5023537;28;46176;-77
2022/03/21 01:05:15;;;;;;;4.10;3.90;;;17.90;62.90;;;;;;5028366;28;44819;-77
2022/03/21 01:07:43;;;;;;;3.87;3.77;;;17.80;63.20;;;;;;5027959;28;43967;-77
2022/03/21 01:10:15;;;;;;;3.90;3.80;;;17.80;63.50;;;;;;5028412;28;43917;-78
2022/03/21 01:12:43;;;;;;;3.53;3.43;;;17.70;63.60;;;;;;5028030;28;43975;-77
2022/03/21 01:15:11;;;;;;;3.83;3.73;;;17.70;63.80;;;;;;5027621;28;43946;-77
2022/03/21 01:17:39;;;;;;;3.80;3.70;;;17.70;64.20;;;;;;5027575;28;43956;-78
2022/03/21 01:20:07;;;;;;;4.00;3.90;;;17.80;64.00;;;;;;5028150;28;43433;-77
2022/03/21 01:22:35;;;;;;;3.73;3.63;;;17.90;63.30;;;;;;5027531;28;43735;-77
2022/03/21 01:25:03;;;;;;;4.10;4.00;;;18.00;63.10;;;;;;5009450;28;44816;-77
2022/03/21 01:27:34;;;;;;;3.80;3.70;;;18.00;63.00;;;;;;5027576;28;43381;-77
2022/03/21 01:30:02;;;;;;;3.60;3.50;;;17.90;63.00;;;;;;5027539;28;43428;-77
2022/03/21 01:32:30;;;;;;;3.97;3.87;;;17.90;63.20;;;;;;5036378;28;43932;-77
2022/03/21 01:34:57;;;;;;;4.33;4.17;;;17.80;63.40;;;;;;5045650;28;44101;-77
2022/03/21 01:37:25;;;;;;;3.90;3.80;;;17.70;63.50;;;;;;5047099;28;43968;-78
2022/03/21 01:39:53;;;;;;;3.80;3.70;;;17.70;63.70;;;;;;5046875;28;43909;-77
2022/03/21 01:42:21;;;;;;;4.10;4.00;;;17.60;63.80;;;;;;5046740;28;43971;-77
2022/03/21 01:44:52;;;;;;;3.70;3.60;;;17.60;63.90;;;;;;5028379;28;44684;-78
2022/03/21 01:47:20;;;;;;;4.00;3.90;;;17.60;64.00;;;;;;5027752;28;44425;-77
2022/03/21 01:49:48;;;;;;;3.70;3.60;;;17.60;64.10;;;;;;5033819;28;44008;-77
2022/03/21 01:52:16;;;;;;;4.00;3.80;;;17.60;64.30;;;;;;5046488;28;44664;-77
2022/03/21 01:57:30;;;;;;;4.17;4.07;;;17.80;64.00;;;;;;5027980;28;43782;-77
2022/03/21 01:59:59;;;;;;;4.00;3.90;;;18.00;63.30;;;;;;5023309;28;43962;-78
2022/03/21 02:02:27;;;;;;;4.00;3.90;;;18.20;63.00;;;;;;5027050;28;44096;-77
2022/03/21 02:04:56;;;;;;;4.03;3.93;;;18.30;62.50;;;;;;5026611;28;43825;-77
2022/03/21 02:07:25;;;;;;;3.93;3.83;;;18.30;62.20;;;;;;5027125;28;44041;-77
2022/03/21 02:09:53;;;;;;;3.93;3.83;;;18.20;62.20;;;;;;5009711;28;44006;-77
2022/03/21 02:12:21;;;;;;;3.83;3.73;;;18.10;62.50;;;;;;5026786;28;43922;-77
2022/03/21 02:14:49;;;;;;;3.60;3.50;;;18.00;62.70;;;;;;5008622;28;43972;-78
2022/03/21 02:17:19;;;;;;;3.80;3.70;;;17.90;62.90;;;;;;5026933;28;43461;-77
2022/03/21 02:19:47;;;;;;;3.67;3.57;;;17.90;63.20;;;;;;5027251;28;43561;-77
2022/03/21 02:22:24;;;;;;;4.13;4.03;;;17.80;63.40;;;;;;5027241;28;44011;-77
2022/03/21 02:24:57;;;;;;;3.80;3.70;;;17.70;63.50;;;;;;5026926;28;44043;-77
2022/03/21 02:27:27;;;;;;;3.70;3.60;;;17.70;63.70;;;;;;5008933;28;44077;-77
2022/03/21 02:29:55;;;;;;;3.70;3.60;;;17.70;64.00;;;;;;5016165;28;44260;-78
2022/03/21 02:32:24;;;;;;;4.37;4.23;;;17.80;64.00;;;;;;5046060;28;43958;-78
2022/03/21 02:34:51;;;;;;;4.00;3.90;;;17.90;63.50;;;;;;5045519;28;44003;-78
2022/03/21 02:37:19;;;;;;;4.07;3.97;;;17.90;63.20;;;;;;5045587;28;43969;-77
2022/03/21 02:39:47;;;;;;;3.50;3.40;;;17.90;63.00;;;;;;5045905;28;44030;-77
2022/03/21 02:42:15;;;;;;;3.70;3.60;;;17.90;63.10;;;;;;5045582;28;44004;-77
2022/03/21 02:44:46;;;;;;;3.80;3.70;;;17.80;63.20;;;;;;5045683;28;43905;-77
2022/03/21 02:47:14;;;;;;;3.77;3.67;;;17.80;63.50;;;;;;5045101;28;43474;-77
2022/03/21 02:49:42;;;;;;;3.50;3.40;;;17.70;63.50;;;;;;5045451;28;43945;-77
2022/03/21 02:52:11;;;;;;;3.87;3.77;;;17.70;63.70;;;;;;5026514;28;45838;-77
2022/03/21 02:54:39;;;;;;;3.80;3.70;;;17.60;63.80;;;;;;5044788;28;44069;-78
2022/03/21 02:57:07;;;;;;;3.87;3.77;;;17.60;63.90;;;;;;5045385;28;43521;-77
2022/03/21 02:59:35;;;;;;;3.70;3.60;;;17.60;64.00;;;;;;5045575;28;43834;-77
2022/03/21 03:02:07;;;;;;;4.07;3.90;;;17.50;64.00;;;;;;5045472;28;43951;-77
2022/03/21 03:04:35;;;;;;;3.40;3.30;;;17.50;64.20;;;;;;5024181;28;43988;-78
2022/03/21 03:07:03;;;;;;;4.23;4.13;;;17.60;64.30;;;;;;5026279;28;43903;-77
2022/03/21 03:09:31;;;;;;;3.70;3.60;;;17.70;64.00;;;;;;5035379;28;44110;-76
2022/03/21 03:12:00;;;;;;;3.90;3.80;;;17.90;63.60;;;;;;5045088;28;43702;-76
2022/03/21 03:14:28;;;;;;;3.80;3.70;;;18.10;63.10;;;;;;5045186;28;44031;-77
2022/03/21 03:16:57;;;;;;;3.63;3.53;;;18.30;62.40;;;;;;5044010;28;44363;-78
2022/03/21 03:19:26;;;;;;;3.57;3.47;;;18.30;62.20;;;;;;5045505;28;43954;-76
2022/03/21 03:21:54;;;;;;;3.57;3.47;;;18.30;62.30;;;;;;5044455;28;43858;-76
2022/03/21 03:24:24;;;;;;;3.60;3.50;;;18.20;62.30;;;;;;5044455;28;44103;-76
2022/03/21 03:26:52;;;;;;;3.70;3.60;;;18.10;62.50;;;;;;5045294;28;43946;-78
2022/03/21 03:29:20;;;;;;;3.90;3.80;;;18.00;62.80;;;;;;5045493;28;43607;-78
2022/03/21 03:31:48;;;;;;;4.03;3.93;;;17.90;63.10;;;;;;5044819;28;44039;-78
2022/03/21 03:34:16;;;;;;;3.80;3.70;;;17.80;63.20;;;;;;5045187;28;43960;-78
2022/03/21 03:36:46;;;;;;;3.60;3.50;;;17.70;63.40;;;;;;5045112;28;43772;-78
2022/03/21 03:39:14;;;;;;;4.00;3.90;;;17.70;63.60;;;;;;5045295;28;43957;-77
2022/03/21 03:41:42;;;;;;;3.70;3.60;;;17.70;63.90;;;;;;5026839;28;45889;-77
2022/03/21 03:44:10;;;;;;;3.60;3.50;;;17.70;64.00;;;;;;5045039;28;43942;-78
2022/03/21 03:46:38;;;;;;;3.63;3.43;;;17.80;63.80;;;;;;5026820;28;43424;-78
2022/03/21 03:49:06;;;;;;;3.70;3.50;;;17.90;63.30;;;;;;5045526;28;43988;-77
2022/03/21 03:51:35;;;;;;;4.07;3.97;;;17.90;63.10;;;;;;5044297;28;44366;-78
2022/03/21 03:54:04;;;;;;;3.70;3.60;;;17.90;63.00;;;;;;5045109;28;43962;-78
2022/03/21 03:56:32;;;;;;;3.77;3.60;;;17.80;63.80;;;;;;5026488;28;43961;-78
2022/03/21 03:59:00;;;;;;;3.70;3.60;;;17.80;63.30;;;;;;5047331;28;44034;-77
2022/03/21 04:01:28;;;;;;;3.60;3.50;;;17.70;63.40;;;;;;5048309;28;44000;-77
2022/03/21 04:03:59;;;;;;;3.60;3.50;;;17.70;63.70;;;;;;5047711;28;43893;-78
2022/03/21 04:06:27;;;;;;;3.80;3.70;;;17.60;63.70;;;;;;5048185;28;43969;-77
2022/03/21 04:08:55;;;;;;;3.67;3.57;;;17.60;63.80;;;;;;5048161;28;44023;-77
2022/03/21 04:11:24;;;;;;;3.87;3.77;;;17.60;64.00;;;;;;5047408;28;44680;-77
2022/03/21 04:13:53;;;;;;;3.77;3.67;;;17.50;64.00;;;;;;5047229;28;44058;-78
2022/03/21 04:16:21;;;;;;;4.00;3.90;;;17.50;64.10;;;;;;5029064;28;43965;-77
2022/03/21 04:18:49;;;;;;;3.90;3.80;;;17.50;64.20;;;;;;5029692;28;43569;-78
2022/03/21 04:21:26;;;;;;;4.50;4.40;;;17.60;64.40;;;;;;5029861;28;45723;-78
2022/03/21 04:23:56;;;;;;;3.80;3.70;;;17.80;64.00;;;;;;5019398;28;44694;-78
2022/03/21 04:26:26;;;;;;;3.67;3.57;;;18.00;63.50;;;;;;5022065;28;44012;-78
2022/03/21 04:28:55;;;;;;;4.37;4.17;;;18.20;62.90;;;;;;5022494;28;44066;-78
2022/03/21 04:31:23;;;;;;;3.97;3.87;;;18.30;62.40;;;;;;5010274;28;45772;-78
2022/03/21 04:33:51;;;;;;;4.10;3.90;;;18.30;62.10;;;;;;5028285;28;43995;-78
2022/03/21 04:36:20;;;;;;;3.93;3.83;;;18.30;62.20;;;;;;5028546;28;43925;-79
2022/03/21 04:38:47;;;;;;;3.73;3.63;;;18.20;63.00;;;;;;5028057;28;43421;-77
2022/03/21 04:41:16;;;;;;;4.00;3.90;;;18.10;62.50;;;;;;5027704;28;45138;-78
2022/03/21 04:43:45;;;;;;;3.90;3.80;;;18.00;62.80;;;;;;5040956;28;43906;-77
2022/03/21 04:46:13;;;;;;;4.07;3.97;;;17.90;63.10;;;;;;5046932;28;43819;-77
2022/03/21 04:48:41;;;;;;;3.93;3.83;;;17.80;63.20;;;;;;5047433;28;44034;-77
2022/03/21 04:51:10;;;;;;;4.07;3.97;;;17.80;63.50;;;;;;5046656;28;44045;-78
2022/03/21 04:53:38;;;;;;;3.93;3.83;;;17.70;63.50;;;;;;5045482;28;43834;-77
2022/03/21 04:56:06;;;;;;;4.10;4.00;;;17.70;63.90;;;;;;5027278;28;44418;-78
2022/03/21 04:58:34;;;;;;;4.47;4.37;;;17.70;64.00;;;;;;5009678;28;44519;-75
2022/03/21 05:01:03;;;;;;;4.10;4.00;;;17.90;63.60;;;;;;5009094;28;46190;-78
2022/03/21 05:03:32;;;;;;;4.20;4.00;;;18.00;63.20;;;;;;5009600;28;44429;-77
2022/03/21 05:06:00;;;;;;;3.90;3.80;;;18.00;63.00;;;;;;5027812;28;44007;-76
2022/03/21 05:08:28;;;;;;;4.13;4.00;;;17.90;62.90;;;;;;5027752;28;43886;-77
2022/03/21 05:10:56;;;;;;;4.10;4.00;;;17.90;63.10;;;;;;5027239;28;43966;-77
2022/03/21 05:13:25;;;;;;;3.83;3.73;;;17.80;63.20;;;;;;5027325;28;43987;-76
2022/03/21 05:15:54;;;;;;;4.13;4.03;;;17.70;63.40;;;;;;5009284;28;43927;-80
2022/03/21 05:18:23;;;;;;;4.07;3.97;;;17.70;63.70;;;;;;5010365;28;43943;-80
2022/03/21 05:20:51;;;;;;;4.07;3.97;;;17.60;63.70;;;;;;5008947;28;45375;-78
2022/03/21 05:31:36;;;;;;;3.80;3.70;;;17.50;64.80;;;;;;5022830;28;45206;-77
2022/03/21 05:36:51;;;;;;;4.20;4.10;;;17.70;64.00;;;;;;5044815;28;44050;-76
2022/03/21 05:39:19;;;;;;;3.63;3.53;;;17.90;63.60;;;;;;5046674;28;44082;-76
2022/03/21 05:41:47;;;;;;;4.00;3.90;;;18.10;63.20;;;;;;5045543;28;44000;-77
2022/03/21 05:44:15;;;;;;;4.23;4.13;;;18.20;62.50;;;;;;5046244;28;43386;-78
2022/03/21 05:46:43;;;;;;;4.10;4.00;;;18.30;62.30;;;;;;5027876;28;44017;-78
2022/03/21 05:49:11;;;;;;;4.10;4.00;;;18.20;62.20;;;;;;5047564;28;43773;-77
2022/03/21 05:51:40;;;;;;;3.97;3.87;;;18.10;62.30;;;;;;5045706;28;44033;-77
2022/03/21 05:54:09;;;;;;;4.13;4.03;;;18.00;62.50;;;;;;5045906;28;44017;-78
2022/03/21 05:56:38;;;;;;;3.87;3.77;;;17.90;62.80;;;;;;5027250;28;44036;-77
2022/03/21 06:01:48;;;;;;;4.30;4.20;;;17.80;63.40;;;;;;5044292;28;43886;-76
2022/03/21 06:04:17;;;;;;;4.27;4.07;;;17.70;63.50;;;;;;5046237;28;44061;-76
2022/03/21 06:06:45;;;;;;;4.33;4.13;;;17.60;63.60;;;;;;5026608;28;43916;-77
2022/03/21 06:09:15;;;;;;;4.50;4.30;;;17.60;63.90;;;;;;5027453;28;43969;-77
2022/03/21 06:11:48;;;;;;;3.97;3.87;;;17.70;64.10;;;;;;5027171;28;43969;-77
2022/03/21 06:14:18;;;;;;;4.03;3.93;;;17.80;63.80;;;;;;5027421;28;44088;-77
2022/03/21 06:16:46;;;;;;;3.93;3.83;;;17.90;63.30;;;;;;5045566;28;44105;-75
2022/03/21 06:19:14;;;;;;;4.07;3.97;;;17.90;63.00;;;;;;5045785;28;44032;-77
2022/03/21 06:21:43;;;;;;;4.10;4.00;;;17.90;63.10;;;;;;5025935;28;45879;-78
2022/03/21 06:24:12;;;;;;;4.40;4.30;;;17.80;63.10;;;;;;5045675;28;43912;-77
2022/03/21 06:26:41;;;;;;;4.27;4.17;;;17.80;63.30;;;;;;5044756;28;43850;-77
2022/03/21 06:29:09;;;;;;;4.00;3.90;;;17.70;63.50;;;;;;5027448;28;43999;-77
2022/03/21 06:31:37;;;;;;;4.03;3.93;;;17.70;63.60;;;;;;5045022;28;45134;-76
2022/03/21 06:34:05;;;;;;;4.70;4.50;;;17.60;63.70;;;;;;5045074;28;44121;-77
2022/03/21 06:36:32;;;;;;;4.70;4.50;;;17.60;63.80;;;;;;5044956;28;43945;-78
2022/03/21 06:39:02;;;;;;;4.90;4.70;;;17.60;63.80;;;;;;5046064;28;44125;-77
2022/03/21 06:41:30;;;;;;;4.97;4.67;;;17.60;63.80;;;;;;5026924;28;47258;-78
2022/03/21 06:43:58;;;;;;;5.07;4.73;;;17.50;63.70;;;;;;5044835;28;43964;-79
2022/03/21 06:46:26;;;;;;;4.83;4.63;;;17.50;64.00;;;;;;5045437;28;43886;-77
2022/03/21 06:48:54;;;;;;;5.53;5.13;;;17.60;64.10;;;;;;5045293;28;44043;-79
2022/03/21 06:51:26;;;;;;;5.07;4.87;;;17.80;63.70;;;;;;5026731;28;45742;-77
2022/03/21 06:53:54;;;;;;;5.70;5.30;;;17.90;63.10;;;;;;5026748;28;45153;-77
2022/03/21 06:56:23;;;;;;;5.43;5.03;;;18.10;62.60;;;;;;5045593;28;43787;-76
2022/03/21 06:58:51;;;;;;;5.43;5.03;;;18.20;62.10;;;;;;5045327;28;44498;-77
2022/03/21 07:01:19;;;;;;;5.27;4.97;;;18.30;62.00;;;;;;5045218;28;44762;-78
2022/03/21 07:03:48;;;;;;;5.83;5.40;;;18.20;61.70;;;;;;5027027;28;45351;-76
2022/03/21 07:06:17;;;;;;;6.00;5.47;;;18.10;61.90;;;;;;5045408;28;43827;-75
2022/03/21 07:08:51;;;;;;;5.80;5.43;;;18.00;62.10;;;;;;5022629;28;44120;-79
2022/03/21 07:11:20;;;;;;;5.93;5.53;;;17.90;62.50;;;;;;4992262;28;44263;-75
2022/03/21 07:13:49;;;;;;;5.77;5.27;;;17.90;62.90;;;;;;5025021;28;43954;-77
2022/03/21 07:16:17;;;;;;;5.60;5.10;;;17.80;63.10;;;;;;5031326;28;43416;-77
2022/03/21 07:18:45;;;;;;;5.73;5.40;;;17.70;63.10;;;;;;5026538;28;43875;-76
2022/03/21 07:21:14;;;;;;;5.77;5.37;;;17.70;63.30;;;;;;5026961;28;45572;-75
2022/03/21 07:23:42;;;;;;;5.53;5.23;;;17.70;63.60;;;;;;5008054;28;44725;-74
2022/03/21 07:26:12;;;;;;;5.53;5.30;;;17.80;63.70;;;;;;5025779;28;43903;-77
2022/03/21 07:28:40;;;;;;;5.57;5.17;;;17.90;63.10;;;;;;5025467;28;43927;-78
2022/03/21 07:31:29;;;;;;;6.07;5.57;;;18.00;62.60;;;;;;5026528;28;43848;-79
2022/03/21 07:33:57;;;;;;;6.33;5.93;;;18.00;62.30;;;;;;5028508;28;43385;-79
2022/03/21 07:36:25;;;;;;;5.60;5.30;;;18.00;62.40;;;;;;5028940;28;43996;-78
2022/03/21 07:38:54;;;;;;;5.00;4.80;;;17.90;62.50;;;;;;5028715;28;44120;-78
2022/03/21 07:41:23;;;;;;;5.80;5.50;;;17.80;62.80;;;;;;5010719;28;45386;-77
2022/03/21 07:43:51;;;;;;;5.70;5.40;;;17.80;63.00;;;;;;5028432;28;44341;-77
2022/03/21 07:49:06;;;;;;;5.63;5.33;;;17.70;63.40;;;;;;5029069;28;43899;-76
2022/03/21 07:51:34;;;;;;;5.50;5.20;;;17.60;63.40;;;;;;5046433;28;43769;-77
2022/03/21 07:54:03;;;;;;;5.80;5.50;;;17.60;63.50;;;;;;5029517;28;44114;-77
2022/03/21 07:56:31;;;;;;;5.43;5.13;;;17.60;63.60;;;;;;5048009;28;43900;-77
2022/03/21 07:59:03;;;;;;;5.27;4.97;;;17.60;63.80;;;;;;5030304;28;44306;-77
2022/03/21 08:01:31;;;;;;;5.00;4.80;;;17.60;64.00;;;;;;5048171;28;43885;-77
2022/03/21 08:04:00;;;;;;;5.17;4.97;;;17.80;63.70;;;;;;5047649;28;43993;-76
2022/03/21 08:06:29;;;;;;;5.40;5.10;;;18.00;63.10;;;;;;5048168;28;43405;-77
2022/03/21 08:08:57;;;;;;;5.60;5.27;;;18.10;62.50;;;;;;5047801;28;44084;-78
2022/03/21 08:11:25;;;;;;;5.43;5.13;;;18.30;62.20;;;;;;5047523;28;43891;-78
2022/03/21 08:13:53;;;;;;;5.53;5.13;;;18.30;61.80;;;;;;5047172;28;43528;-77
2022/03/21 08:16:22;;;;;;;5.27;5.00;;;18.30;61.80;;;;;;5047664;28;43992;-77
2022/03/21 08:18:51;;;;;;;5.30;5.00;;;18.20;62.00;;;;;;5009750;28;43974;-76
2022/03/21 08:21:19;;;;;;;4.87;4.60;;;18.10;62.30;;;;;;5021631;28;44092;-78
2022/03/21 08:23:52;;;;;;;5.20;5.00;;;18.00;62.60;;;;;;5021082;28;43985;-78
2022/03/21 08:26:20;;;;;;;5.50;5.20;;;17.90;62.90;;;;;;5010107;28;44046;-76
2022/03/21 08:28:48;;;;;;;5.73;5.27;;;17.80;63.10;;;;;;5027643;28;44027;-77
2022/03/21 08:31:16;;;;;;;4.90;4.80;;;17.80;63.20;;;;;;5028072;28;43985;-76
2022/03/21 08:33:44;;;;;;;5.33;5.03;;;17.70;63.30;;;;;;5027561;28;44121;-76
2022/03/21 08:36:12;;;;;;;5.27;5.07;;;17.70;63.60;;;;;;5010226;28;43958;-76
2022/03/21 08:38:40;;;;;;;4.77;4.57;;;17.70;63.80;;;;;;5009632;28;44054;-76
2022/03/21 08:41:11;;;;;;;5.03;4.83;;;17.80;63.40;;;;;;5027789;28;43610;-77
2022/03/21 08:43:39;;;;;;;4.80;4.50;;;18.00;63.00;;;;;;5026749;28;43837;-76
2022/03/21 08:46:07;;;;;;;5.20;5.00;;;18.00;62.70;;;;;;5028493;28;44179;-76
2022/03/21 08:51:43;;;;;;;5.17;4.87;;;17.90;62.80;;;;;;5046739;28;43972;-77
2022/03/21 08:54:11;;;;;;;5.10;4.90;;;17.90;63.10;;;;;;5020778;28;43923;-76
2022/03/21 08:56:40;;;;;;;4.40;4.30;;;17.80;63.20;;;;;;5020764;28;44070;-77
2022/03/21 08:59:09;;;;;;;5.00;4.80;;;17.70;63.30;;;;;;5020246;28;44005;-76
2022/03/21 09:01:36;;;;;;;5.47;5.17;;;17.70;63.40;;;;;;5025132;28;45640;-77
2022/03/21 09:04:05;;;;;;;4.50;4.40;;;17.70;63.50;;;;;;5021878;28;43466;-78
2022/03/21 09:06:34;;;;;;;4.63;4.53;;;17.70;63.70;;;;;;5021379;28;44230;-78
2022/03/21 09:09:02;;;;;;;4.83;4.63;;;17.70;63.70;;;;;;5028579;28;44065;-75
2022/03/21 09:11:30;;;;;;;4.97;4.77;;;17.60;63.70;;;;;;5027638;28;43777;-76
2022/03/21 09:13:59;;;;;;;4.90;4.70;;;17.60;63.80;;;;;;5027322;28;43999;-76
2022/03/21 09:16:27;;;;;;;4.40;4.20;;;17.70;63.80;;;;;;5027913;28;43817;-76
2022/03/21 09:18:55;;;;;;;4.67;4.47;;;17.90;63.50;;;;;;5027881;28;44005;-76
2022/03/21 09:21:23;;;;;;;4.97;4.77;;;18.10;63.00;;;;;;5027499;28;43930;-77
2022/03/21 09:23:51;;;;;;;4.50;4.30;;;18.30;62.50;;;;;;5027001;28;43957;-77
2022/03/21 09:26:21;;;;;;;5.20;4.90;;;18.40;61.90;;;;;;5027622;28;43885;-76
2022/03/21 09:28:49;;;;;;;5.10;4.80;;;18.40;61.60;;;;;;5027126;28;43996;-77
2022/03/21 09:31:19;;;;;;;4.87;4.67;;;18.40;61.70;;;;;;5026502;28;45084;-78
2022/03/21 09:34:06;;;;;;;4.67;4.47;;;18.30;61.90;;;;;;5009527;28;45092;-78
2022/03/21 09:36:34;;;;;;;4.50;4.30;;;18.10;62.10;;;;;;5027464;28;44053;-78
2022/03/21 09:39:02;;;;;;;4.70;4.60;;;18.00;62.50;;;;;;5028065;28;44354;-77
2022/03/21 09:41:30;;;;;;;4.27;4.17;;;17.90;62.70;;;;;;5027737;28;43916;-76
2022/03/21 09:44:00;;;;;;;5.07;4.43;;;17.90;62.90;;;;;;5027319;28;44049;-77
2022/03/21 09:46:29;;;;;;;4.37;4.17;;;17.80;62.90;;;;;;5009596;28;43892;-77
2022/03/21 09:48:58;;;;;;;4.90;4.53;;;17.80;63.10;;;;;;5027124;28;44294;-76
2022/03/21 09:51:26;;;;;;;4.77;4.40;;;17.80;63.50;;;;;;5037686;28;43787;-77
2022/03/21 09:53:54;;;;;;;4.40;4.10;;;17.80;63.40;;;;;;5045943;28;43984;-78
2022/03/21 09:56:22;;;;;;;4.63;4.50;;;17.90;63.10;;;;;;5044522;28;43885;-77
2022/03/21 09:58:53;;;;;;;4.30;4.20;;;18.00;62.70;;;;;;5046140;28;43940;-77
2022/03/21 10:01:21;;;;;;;4.77;4.67;;;18.10;62.60;;;;;;5046123;28;45248;-77
2022/03/21 10:03:50;;;;;;;4.50;4.30;;;18.00;62.60;;;;;;5027344;28;44378;-76
2022/03/21 10:06:29;;;;;;;4.00;3.90;;;18.00;62.80;;;;;;5027963;28;43437;-77
2022/03/21 10:09:05;;;;;;;4.30;4.10;;;17.90;63.00;;;;;;5020527;28;43945;-77
2022/03/21 10:11:34;;;;;;;4.40;4.10;;;17.90;63.30;;;;;;5027576;28;43761;-76
2022/03/21 10:14:29;;;;;;;4.07;3.97;;;17.80;63.30;;;;;;5046140;28;43356;-77
2022/03/21 10:16:58;;;;;;;4.67;4.47;;;17.80;63.50;;;;;;5046081;28;43317;-76
2022/03/21 10:19:28;;;;;;;4.47;4.27;;;17.80;63.70;;;;;;5046646;28;43995;-77
2022/03/21 10:22:04;;;;;;;4.40;4.20;;;17.70;63.60;;;;;;5033355;28;44206;-78
2022/03/21 10:24:36;;;;;;;4.23;4.03;;;17.70;63.70;;;;;;5046000;28;44031;-77
2022/03/21 10:27:05;;;;;;;5.97;4.43;;;17.70;63.70;;;;;;5046199;28;43842;-78
2022/03/21 10:29:33;;;;;;;4.23;4.03;;;17.70;63.60;;;;;;5046426;28;43953;-77
2022/03/21 10:32:01;;;;;;;4.87;4.20;;;17.90;63.30;;;;;;5027455;28;45883;-77
2022/03/21 10:34:34;;;;;;;4.30;4.20;;;18.00;62.60;;;;;;5046022;28;44063;-78
2022/03/21 10:37:03;;;;;;;4.57;4.40;;;18.20;62.00;;;;;;5045617;28;43923;-76
2022/03/21 10:39:32;;;;;;;4.27;4.00;;;18.40;61.40;;;;;;5045008;28;43883;-78
2022/03/21 10:42:02;;;;;;;4.43;4.33;;;18.40;61.10;;;;;;5025908;28;43990;-77
2022/03/21 10:44:30;;;;;;;4.70;4.40;;;18.40;61.20;;;;;;5026432;28;43973;-76
2022/03/21 10:47:00;;;;;;;4.43;4.20;;;18.30;61.30;;;;;;5027070;28;43827;-77
2022/03/21 10:49:33;;;;;;;4.67;4.47;;;18.20;61.60;;;;;;5026741;28;43353;-75
2022/03/21 10:52:01;;;;;;;4.63;4.33;;;18.10;61.90;;;;;;5007785;28;44197;-76
2022/03/21 10:54:40;;;;;;;4.57;4.37;;;18.00;62.10;;;;;;5028997;28;43995;-77
2022/03/21 10:57:09;;;;;;;4.87;4.67;;;18.00;62.40;;;;;;5045307;28;43960;-77
2022/03/21 10:59:36;;;;;;;5.17;4.70;;;17.90;62.50;;;;;;5045834;28;43956;-79
2022/03/21 11:02:12;;;;;;;4.93;4.60;;;17.90;62.70;;;;;;5027223;28;45346;-78
2022/03/21 11:04:44;;;;;;;4.90;4.60;;;17.80;62.80;;;;;;5044690;28;43988;-77
2022/03/21 11:07:15;;;;;;;4.63;4.43;;;17.90;62.90;;;;;;5046220;28;44076;-78
2022/03/21 11:09:47;;;;;;;4.77;4.33;;;18.00;62.70;;;;;;5048200;28;44055;-77
2022/03/21 11:12:15;;;;;;;4.80;4.43;;;18.10;62.30;;;;;;5048279;28;45131;-78
2022/03/21 11:14:42;;;;;;;5.07;4.57;;;18.10;62.20;;;;;;5030014;28;44555;-77
2022/03/21 11:17:10;;;;;;;4.30;4.20;;;18.10;62.30;;;;;;5048610;28;43593;-77
2022/03/21 11:19:39;;;;;;;5.20;4.80;;;18.00;62.40;;;;;;5030454;28;43969;-76
2022/03/21 11:22:08;;;;;;;4.27;4.17;;;18.00;62.70;;;;;;5047962;28;43834;-77
2022/03/21 11:24:36;;;;;;;4.87;4.57;;;17.90;62.80;;;;;;5029377;28;44437;-76
2022/03/21 11:27:15;;;;;;;6.20;4.50;;;17.90;62.90;;;;;;5030133;28;43361;-76
2022/03/21 11:29:48;;;;;;;4.60;4.30;;;17.80;63.00;;;;;;5048627;28;43931;-78
2022/03/21 11:32:25;;;;;;;4.97;4.50;;;17.80;63.10;;;;;;5048271;28;44762;-76
2022/03/21 11:34:58;;;;;;;4.63;4.20;;;17.80;63.20;;;;;;5048285;28;43889;-78
2022/03/21 11:37:29;;;;;;;4.43;4.10;;;17.80;63.20;;;;;;5030174;28;43929;-76
2022/03/21 11:40:26;;;;;;;4.50;4.10;;;17.80;63.40;;;;;;5048668;28;43995;-77
2022/03/21 11:42:55;;;;;;;5.07;4.40;;;17.80;63.40;;;;;;5048060;28;44048;-77
2022/03/21 11:45:24;;;;;;;4.50;4.20;;;17.90;63.20;;;;;;5048280;28;44112;-77
2022/03/21 11:48:07;;;;;;;4.33;4.13;;;18.10;62.90;;;;;;5047587;28;44013;-77
2022/03/21 11:50:35;;;;;;;5.23;4.73;;;18.20;62.20;;;;;;5029621;28;44279;-78
2022/03/21 11:53:08;;;;;;;4.97;4.67;;;18.40;61.90;;;;;;5048132;28;44064;-77
2022/03/21 11:55:40;;;;;;;4.57;4.27;;;18.40;61.60;;;;;;5029235;28;45144;-78
2022/03/21 11:58:44;;;;;;;4.00;3.87;;;18.40;61.70;;;;;;5033602;28;43969;-77
2022/03/21 12:01:12;;;;;;;5.37;3.90;;;18.30;62.00;;;;;;5039609;28;43935;-77
2022/03/21 12:03:41;;;;;;;4.50;3.83;;;18.20;62.20;;;;;;5048185;28;43971;-77
2022/03/21 12:06:23;;;;;;;4.23;4.03;;;18.10;62.50;;;;;;5047643;28;44021;-77
2022/03/21 12:08:58;;;;;;;6.87;4.57;;;18.00;62.70;;;;;;5016828;28;44051;-78
2022/03/21 12:12:03;;;;;;;8.40;4.70;;;18.00;62.90;;;;;;5023677;28;43955;-77
2022/03/21 12:14:44;;;;;;;5.20;4.27;;;17.90;62.90;;;;;;5028472;28;44005;-75
2022/03/21 12:17:36;;;;;;;10.67;4.37;;;17.90;63.10;;;;;;5009726;28;44709;-76
2022/03/21 12:20:15;;;;;;;8.50;4.40;;;17.90;63.20;;;;;;5044473;28;43365;-76
2022/03/21 12:23:14;;;;;;;4.43;4.13;;;18.00;62.80;;;;;;5047969;28;43815;-77
2022/03/21 12:25:46;;;;;;;5.30;4.37;;;18.20;62.40;;;;;;5031324;28;44771;-75
2022/03/21 12:29:31;;;;;;;7.73;4.33;;;18.20;62.30;;;;;;5028505;28;43997;-77
2022/03/21 12:31:24;;;;;;;3.97;3.67;;;18.10;62.30;;;;;;5028085;28;44113;-77
2022/03/21 12:33:52;;;;;;;5.40;4.33;;;18.10;62.50;;;;;;5028612;28;44091;-77
2022/03/21 12:36:31;;;;;;;4.57;4.17;;;18.00;62.70;;;;;;5027884;28;43978;-77
2022/03/21 12:38:59;;;;;;;5.20;3.90;;;18.00;62.80;;;;;;5028125;28;43982;-78
2022/03/21 12:41:34;;;;;;;7.37;4.60;;;17.90;62.80;;;;;;5028529;28;43883;-78
2022/03/21 12:44:02;;;;;;;4.30;4.00;;;17.90;63.00;;;;;;5010377;28;44009;-77
2022/03/21 12:46:31;;;;;;;5.37;4.40;;;17.80;63.10;;;;;;5028355;28;44823;-78
2022/03/21 12:49:00;;;;;;;4.73;4.23;;;17.80;63.20;;;;;;5010056;28;45588;-78
2022/03/21 12:51:33;;;;;;;5.03;4.20;;;17.80;63.20;;;;;;5027972;28;43760;-78
2022/03/21 12:54:21;;;;;;;6.13;4.13;;;17.80;63.30;;;;;;5027949;28;44020;-77
2022/03/21 12:56:50;;;;;;;4.70;4.30;;;17.90;63.40;;;;;;5027710;28;43981;-78
2022/03/21 12:59:21;;;;;;;5.60;4.20;;;18.00;63.00;;;;;;5025187;28;44541;-77
2022/03/21 13:01:49;;;;;;;5.30;3.97;;;18.20;62.40;;;;;;5045865;28;43894;-78
2022/03/21 13:12:38;;;;;;;3.83;3.63;;;18.40;61.70;;;;;;5009800;28;43994;-77
2022/03/21 13:15:07;;;;;;;3.90;3.70;;;18.30;62.00;;;;;;5027701;28;43919;-76
2022/03/21 13:17:57;;;;;;;4.07;3.87;;;18.20;62.20;;;;;;5027067;28;44795;-77
2022/03/21 13:20:29;;;;;;;4.03;3.77;;;18.10;62.50;;;;;;5027648;28;43981;-76
2022/03/21 13:22:58;;;;;;;4.10;3.80;;;18.00;63.30;;;;;;5027487;28;44001;-79
2022/03/21 13:25:28;;;;;;;4.53;3.80;;;18.00;62.70;;;;;;5009275;28;44157;-79
2022/03/21 13:28:14;;;;;;;5.90;3.70;;;18.00;62.90;;;;;;5008715;28;45401;-79
2022/03/21 13:30:57;;;;;;;5.87;3.90;;;17.90;63.10;;;;;;5026562;28;43926;-76
2022/03/21 13:33:27;;;;;;;4.20;3.80;;;18.00;63.00;;;;;;5027529;28;44091;-78